createdAt,value
2023-01-17T00:04:29.071Z,90.04
2023-01-17T00:09:45.618Z,90.07
2023-01-17T00:14:45.746Z,90.08
2023-01-17T00:20:01.908Z,90.30
2023-01-17T00:25:18.906Z,90.23
2023-01-17T00:30:17.805Z,90.22
2023-01-17T00:35:16.711Z,90.33
2023-01-17T00:40:15.518Z,90.28
2023-01-17T00:45:33.777Z,90.29
2023-01-17T00:50:51.151Z,90.29
2023-01-17T00:56:08.104Z,90.24
2023-01-17T01:01:29.758Z,90.20
2023-01-17T01:06:46.165Z,90.18
2023-01-17T01:12:02.968Z,90.25
2023-01-17T01:17:19.811Z,90.29
2023-01-17T01:22:36.701Z,90.31
2023-01-17T01:27:52.907Z,90.36
2023-01-17T01:33:09.536Z,90.44
2023-01-17T01:38:09.373Z,90.56
2023-01-17T01:43:10.717Z,90.53
2023-01-17T01:48:25.809Z,90.64
2023-01-17T01:53:26.165Z,90.65
2023-01-17T01:58:29.960Z,90.65
2023-01-17T02:03:33.373Z,90.81
2023-01-17T02:08:36.848Z,91.07
2023-01-17T02:13:36.143Z,91.16
2023-01-17T02:18:48.164Z,91.18
2023-01-17T02:24:41.659Z,91.12
2023-01-17T02:30:25.732Z,91.27
2023-01-17T02:35:36.211Z,91.12
2023-01-17T02:40:43.964Z,90.97
2023-01-17T02:45:44.386Z,91.13
2023-01-17T02:51:12.465Z,91.26
2023-01-17T02:56:32.793Z,91.19
2023-01-17T03:01:44.943Z,91.11
2023-01-17T03:06:53.852Z,91.07
2023-01-17T03:11:53.486Z,90.98
2023-01-17T03:16:53.919Z,91.04
2023-01-17T03:21:54.243Z,91.04
2023-01-17T03:26:53.401Z,90.98
2023-01-17T03:31:53.020Z,90.88
2023-01-17T03:36:52.306Z,90.96
2023-01-17T03:41:51.490Z,91.10
2023-01-17T03:46:51.346Z,91.04
2023-01-17T03:51:51.072Z,91.02
2023-01-17T03:56:52.433Z,90.99
2023-01-17T04:01:51.698Z,90.87
2023-01-17T04:06:51.903Z,90.84
2023-01-17T04:11:53.531Z,90.77
2023-01-17T04:16:54.800Z,90.73
2023-01-17T04:21:54.049Z,90.81
2023-01-17T04:26:54.192Z,90.79
2023-01-17T04:31:53.536Z,90.69
2023-01-17T04:36:53.271Z,90.66
2023-01-17T04:41:53.608Z,90.56
2023-01-17T04:46:52.457Z,90.62
2023-01-17T04:51:52.121Z,90.59
2023-01-17T04:56:51.871Z,90.42
2023-01-17T05:01:52.556Z,90.37
2023-01-17T05:06:51.344Z,90.45
2023-01-17T05:11:50.745Z,90.52
2023-01-17T05:16:49.759Z,90.51
2023-01-17T05:21:49.202Z,90.54
2023-01-17T05:26:55.012Z,90.52
2023-01-17T05:31:54.285Z,90.47
2023-01-17T05:36:53.388Z,90.41
2023-01-17T05:41:52.487Z,90.40
2023-01-17T05:46:51.191Z,90.25
2023-01-17T05:51:50.459Z,90.16
2023-01-17T05:56:50.318Z,90.20
2023-01-17T06:01:51.599Z,90.12
2023-01-17T06:06:52.270Z,90.13
2023-01-17T06:11:52.338Z,90.11
2023-01-17T06:16:51.322Z,90.11
2023-01-17T06:21:51.024Z,90.04
2023-01-17T06:26:50.245Z,90.05
2023-01-17T06:31:49.651Z,90.04
2023-01-17T06:36:49.285Z,90.03
2023-01-17T06:41:48.757Z,90.03
2023-01-17T06:46:48.900Z,90.07
2023-01-17T06:51:48.383Z,90.10
2023-01-17T06:56:47.525Z,90.01
2023-01-17T07:01:46.952Z,90.00
2023-01-17T07:06:46.546Z,90.10
2023-01-17T07:11:46.221Z,90.10
2023-01-17T07:16:47.125Z,90.13
2023-01-17T07:21:46.274Z,90.16
2023-01-17T07:26:45.008Z,90.20
2023-01-17T07:31:44.176Z,90.20
2023-01-17T07:36:43.821Z,90.19
2023-01-17T07:41:43.028Z,90.22
2023-01-17T07:46:42.478Z,90.19
2023-01-17T07:51:42.325Z,90.19
2023-01-17T07:56:45.777Z,90.25
2023-01-17T08:01:44.785Z,90.28
2023-01-17T08:06:49.049Z,90.24
2023-01-17T08:11:48.145Z,90.17
2023-01-17T08:16:47.836Z,90.07
2023-01-17T08:21:47.124Z,89.74
2023-01-17T08:26:45.897Z,89.62
2023-01-17T08:31:45.121Z,89.39
2023-01-17T08:36:44.941Z,89.23
2023-01-17T08:41:44.178Z,88.95
2023-01-17T08:46:44.398Z,89.07
2023-01-17T08:51:42.957Z,88.85
2023-01-17T08:56:42.968Z,88.49
2023-01-17T09:01:42.434Z,88.75
2023-01-17T09:06:45.657Z,88.40
2023-01-17T09:11:45.257Z,88.26
2023-01-17T09:16:47.058Z,87.56
2023-01-17T09:21:46.792Z,87.41
2023-01-17T09:26:46.307Z,87.65
2023-01-17T09:31:47.333Z,87.72
2023-01-17T09:36:46.494Z,87.58
2023-01-17T09:41:54.226Z,87.35
2023-01-17T09:46:58.038Z,86.91
2023-01-17T09:51:58.861Z,86.70
2023-01-17T09:57:06.061Z,86.25
2023-01-17T10:02:47.107Z,86.23
2023-01-17T10:08:04.681Z,85.93
2023-01-17T10:13:17.210Z,85.67
2023-01-17T10:18:51.201Z,85.74
2023-01-17T10:24:25.814Z,85.41
2023-01-17T10:29:30.188Z,85.39
2023-01-17T10:34:38.509Z,85.08
2023-01-17T10:39:39.455Z,85.10
2023-01-17T10:44:50.722Z,84.58
2023-01-17T10:49:53.812Z,84.31
2023-01-17T10:55:19.299Z,84.50
2023-01-17T11:00:50.076Z,83.87
2023-01-17T11:06:09.515Z,83.29
2023-01-17T11:11:12.439Z,82.45
2023-01-17T11:16:22.906Z,82.96
2023-01-17T11:21:25.433Z,82.99
2023-01-17T11:26:31.995Z,82.96
2023-01-17T11:31:32.019Z,82.82
2023-01-17T11:36:34.198Z,82.81
2023-01-17T11:41:40.213Z,82.81
2023-01-17T11:46:39.650Z,82.87
2023-01-17T11:51:44.444Z,82.86
2023-01-17T11:56:46.547Z,82.89
2023-01-17T12:01:58.099Z,82.58
2023-01-17T12:07:26.399Z,82.70
2023-01-17T12:13:01.687Z,82.27
2023-01-17T12:18:33.676Z,82.29
2023-01-17T12:24:19.453Z,81.72
2023-01-17T12:30:01.452Z,81.68
2023-01-17T12:35:11.357Z,80.98
2023-01-17T12:40:25.178Z,81.11
2023-01-17T12:45:33.160Z,81.00
2023-01-17T12:50:39.432Z,81.10
2023-01-17T12:55:52.819Z,80.92
2023-01-17T13:01:01.768Z,80.81
2023-01-17T13:06:05.275Z,81.13
2023-01-17T13:11:12.830Z,81.29
2023-01-17T13:16:21.078Z,80.50
2023-01-17T13:21:35.785Z,80.88
2023-01-17T13:26:58.719Z,81.11
2023-01-17T13:32:28.849Z,80.91
2023-01-17T13:38:05.257Z,80.69
2023-01-17T13:43:13.851Z,80.52
2023-01-17T13:48:40.904Z,79.36
2023-01-17T13:54:00.919Z,78.38
2023-01-17T13:59:22.585Z,78.28
2023-01-17T14:04:23.080Z,77.44
2023-01-17T14:09:44.093Z,77.02
2023-01-17T14:14:55.809Z,75.58
2023-01-17T14:20:00.523Z,75.45
2023-01-17T14:25:17.556Z,74.32
2023-01-17T14:30:28.750Z,74.57
2023-01-17T14:35:34.122Z,73.75
2023-01-17T14:40:39.194Z,73.21
2023-01-17T14:45:40.171Z,73.28
2023-01-17T14:50:45.161Z,73.88
2023-01-17T14:55:57.305Z,74.04
2023-01-17T15:01:05.922Z,74.34
2023-01-17T15:06:17.285Z,74.98
2023-01-17T15:11:25.854Z,75.30
2023-01-17T15:16:33.900Z,75.64
2023-01-17T15:21:37.326Z,76.16
2023-01-17T15:26:45.443Z,76.71
2023-01-17T15:31:49.356Z,76.93
2023-01-17T15:36:57.583Z,77.20
2023-01-17T15:42:00.369Z,77.54
2023-01-17T15:47:00.157Z,77.84
2023-01-17T15:52:15.908Z,78.09
2023-01-17T15:57:36.959Z,78.36
2023-01-17T16:02:55.601Z,78.59
2023-01-17T16:07:56.951Z,78.84
2023-01-17T16:12:57.668Z,79.16
2023-01-17T16:43:11.551Z,80.51
2023-01-17T16:55:16.821Z,81.03
2023-01-17T17:00:19.307Z,81.29
2023-01-17T17:05:18.938Z,81.52
2023-01-17T17:10:22.275Z,81.67
2023-01-17T17:15:22.011Z,81.80
2023-01-17T17:20:24.515Z,81.93
2023-01-17T17:25:25.136Z,82.08
2023-01-17T17:30:25.262Z,82.27
2023-01-17T17:35:25.092Z,82.41
2023-01-17T17:40:24.847Z,82.55
2023-01-17T17:45:24.710Z,82.66
2023-01-17T17:50:25.847Z,82.86
2023-01-17T17:55:26.095Z,82.97
2023-01-17T18:00:27.809Z,83.05
2023-01-17T18:05:28.815Z,83.26
2023-01-17T18:10:28.404Z,83.50
2023-01-17T18:15:27.357Z,83.62
2023-01-17T18:20:27.023Z,83.73
2023-01-17T18:25:26.095Z,83.82
2023-01-17T18:30:25.792Z,84.04
2023-01-17T18:35:24.683Z,84.16
2023-01-17T18:40:24.670Z,84.10
2023-01-17T18:45:24.592Z,84.07
2023-01-17T18:50:24.114Z,84.32
2023-01-17T18:55:23.508Z,84.46
2023-01-17T19:00:25.393Z,84.57
2023-01-17T19:05:24.898Z,84.48
2023-01-17T19:10:26.174Z,84.55
2023-01-17T19:15:25.659Z,84.68
2023-01-17T19:20:25.260Z,84.68
2023-01-17T19:25:25.796Z,84.85
2023-01-17T19:30:26.920Z,84.89
2023-01-17T19:35:31.053Z,85.00
2023-01-17T19:40:30.919Z,85.10
2023-01-17T19:45:30.789Z,85.35
2023-01-17T19:50:30.114Z,85.33
2023-01-17T19:55:28.716Z,85.50
2023-01-17T20:00:30.358Z,85.55
2023-01-17T20:05:32.489Z,85.70
2023-01-17T20:10:56.983Z,85.84
2023-01-17T20:16:15.518Z,85.84
2023-01-17T20:21:18.950Z,85.92
2023-01-17T20:26:25.601Z,85.95
2023-01-17T20:31:27.700Z,86.04
2023-01-17T20:36:29.122Z,86.16
2023-01-17T20:41:33.037Z,86.20
2023-01-17T20:46:36.628Z,86.21
2023-01-17T20:51:38.726Z,86.17
2023-01-17T20:56:39.709Z,86.22
2023-01-17T21:01:39.489Z,86.32
2023-01-17T21:06:40.581Z,86.35
2023-01-17T21:11:40.676Z,86.37
2023-01-17T21:16:40.937Z,86.42
2023-01-17T21:21:40.553Z,86.43
2023-01-17T21:26:43.074Z,86.53
2023-01-17T21:31:43.200Z,86.60
2023-01-17T21:36:45.061Z,86.62
2023-01-17T21:41:46.882Z,86.69
2023-01-17T21:46:46.313Z,86.74
2023-01-17T21:52:04.378Z,86.75
2023-01-17T21:57:21.205Z,86.77
2023-01-17T22:02:20.977Z,87.19
2023-01-17T22:07:20.380Z,87.76
2023-01-17T22:12:20.038Z,88.06
2023-01-17T22:17:21.823Z,88.10
2023-01-17T22:22:22.777Z,88.13
2023-01-17T22:27:24.333Z,88.15
2023-01-17T22:32:24.191Z,88.19
2023-01-17T22:37:23.642Z,88.20
2023-01-17T22:42:25.228Z,88.30
2023-01-17T22:47:24.556Z,88.24
2023-01-17T22:52:23.695Z,88.37
2023-01-17T22:57:23.734Z,88.48
2023-01-17T23:02:23.132Z,88.59
2023-01-17T23:07:27.276Z,88.57
2023-01-17T23:12:27.381Z,88.53
2023-01-17T23:17:45.641Z,88.57
2023-01-17T23:22:44.725Z,88.60
2023-01-17T23:28:03.785Z,88.56
2023-01-17T23:33:07.096Z,88.59
2023-01-17T23:38:23.707Z,88.66
2023-01-17T23:43:26.857Z,88.72
2023-01-17T23:48:27.767Z,88.75
2023-01-17T23:53:28.700Z,88.78
2023-01-17T23:58:31.055Z,88.78
